PILOTS ONLINE: 228    ATC ONLINE: 36

KSMO

Santa Monica Municipal Airport

Location

City Santa Monica
Country  United States
Latitude 34° 0' 56" N
Longitude 118° 27' 3" W
Elevation 177 ft
Type Small Airport

Map

Weather

METAR
2014/08/20 07:51
KSMO 200751Z 24004KT 10SM OVC020 21/16 A2989 RMK AO2 SLP119 T02060156 402610200
TAF
No TAF available

Runways

03/21 4973 ft / 150 ft

Outbound flights

Callsign Flying to Pilot ATD/STD ETA Aircraft

Inbound flights

Callsign Flying from Pilot ATD ETA Aircraft